createdAt,value
2017-08-07T00:00:02.015Z,2.50
2017-08-07T00:02:30.192Z,2.90
2017-08-07T00:04:58.859Z,3.00
2017-08-07T00:07:26.287Z,3.13
2017-08-07T00:09:54.217Z,2.77
2017-08-07T00:12:21.634Z,2.80
2017-08-07T00:14:49.042Z,2.80
2017-08-07T00:17:16.462Z,3.03
2017-08-07T00:19:43.879Z,3.07
2017-08-07T00:22:11.302Z,3.97
2017-08-07T00:24:38.714Z,3.07
2017-08-07T00:27:06.139Z,3.23
2017-08-07T00:29:33.554Z,2.80
2017-08-07T00:32:01.731Z,2.97
2017-08-07T00:34:29.146Z,2.70
2017-08-07T00:36:56.559Z,3.70
2017-08-07T00:39:23.970Z,2.93
2017-08-07T00:41:52.363Z,2.80
2017-08-07T00:44:20.794Z,3.07
2017-08-07T00:46:48.723Z,3.17
2017-08-07T00:49:16.911Z,2.93
2017-08-07T00:51:45.482Z,2.77
2017-08-07T00:54:13.674Z,3.57
2017-08-07T00:56:41.157Z,3.20
2017-08-07T00:59:08.570Z,2.80
2017-08-07T01:01:36.739Z,2.90
2017-08-07T01:04:04.933Z,2.83
2017-08-07T01:06:33.242Z,3.50
2017-08-07T01:09:00.665Z,3.17
2017-08-07T01:11:28.083Z,3.10
2017-08-07T01:13:55.522Z,3.73
2017-08-07T01:16:23.314Z,3.03
2017-08-07T01:18:51.496Z,3.73
2017-08-07T01:21:19.688Z,3.40
2017-08-07T01:23:47.097Z,3.90
2017-08-07T01:26:14.515Z,3.33
2017-08-07T01:28:41.935Z,3.50
2017-08-07T01:31:10.897Z,3.47
2017-08-07T01:33:39.506Z,3.40
2017-08-07T01:36:06.927Z,3.20
2017-08-07T01:38:34.347Z,3.50
2017-08-07T01:41:01.775Z,3.50
2017-08-07T01:43:29.178Z,3.20
2017-08-07T01:45:56.598Z,3.13
2017-08-07T01:48:24.786Z,3.27
2017-08-07T01:50:52.209Z,3.30
2017-08-07T01:53:19.610Z,3.63
2017-08-07T01:55:47.500Z,4.40
2017-08-07T01:58:14.895Z,3.50
2017-08-07T02:00:43.070Z,3.60
2017-08-07T02:03:10.491Z,3.80
2017-08-07T02:05:37.902Z,4.00
2017-08-07T02:08:05.324Z,4.00
2017-08-07T02:10:33.878Z,3.73
2017-08-07T02:13:01.661Z,3.70
2017-08-07T02:15:29.062Z,4.10
2017-08-07T02:17:57.239Z,4.10
2017-08-07T02:20:24.659Z,3.57
2017-08-07T02:22:52.077Z,3.50
2017-08-07T02:25:19.482Z,4.03
2017-08-07T02:27:47.662Z,4.60
2017-08-07T02:30:15.842Z,3.53
2017-08-07T02:32:44.028Z,4.80
2017-08-07T02:35:11.430Z,4.70
2017-08-07T02:37:38.847Z,4.40
2017-08-07T02:40:07.044Z,4.27
2017-08-07T02:42:34.454Z,4.60
2017-08-07T02:45:02.990Z,4.50
2017-08-07T02:47:30.386Z,4.20
2017-08-07T02:49:58.570Z,4.50
2017-08-07T02:52:26.742Z,4.27
2017-08-07T02:54:54.928Z,4.50
2017-08-07T02:57:23.097Z,4.30
2017-08-07T02:59:50.510Z,4.53
2017-08-07T03:02:17.919Z,4.77
2017-08-07T03:04:45.335Z,3.93
2017-08-07T03:07:13.655Z,4.37
2017-08-07T03:09:41.071Z,4.73
2017-08-07T03:12:08.490Z,3.63
2017-08-07T03:14:35.901Z,4.43
2017-08-07T03:17:04.075Z,5.40
2017-08-07T03:19:32.252Z,5.10
2017-08-07T03:22:00.431Z,4.40
2017-08-07T03:24:27.844Z,4.67
2017-08-07T03:26:56.439Z,4.30
2017-08-07T03:29:23.847Z,4.13
2017-08-07T03:31:51.279Z,4.00
2017-08-07T03:34:19.441Z,4.67
2017-08-07T03:36:46.862Z,4.20
2017-08-07T03:39:14.279Z,5.10
2017-08-07T03:41:41.692Z,4.50
2017-08-07T03:44:09.098Z,5.50
2017-08-07T03:46:36.519Z,4.23
2017-08-07T03:49:03.925Z,4.07
2017-08-07T03:51:31.339Z,4.20
2017-08-07T03:53:59.544Z,4.33
2017-08-07T03:56:27.695Z,4.20
2017-08-07T03:58:55.873Z,4.30
2017-08-07T04:01:23.290Z,5.23
2017-08-07T04:03:51.348Z,5.37
2017-08-07T04:06:18.757Z,4.60
2017-08-07T04:08:46.930Z,5.00
2017-08-07T04:11:14.334Z,4.80
2017-08-07T04:13:41.751Z,4.10
2017-08-07T04:16:09.154Z,4.80
2017-08-07T04:18:36.564Z,4.30
2017-08-07T04:21:03.978Z,4.63
2017-08-07T04:23:31.392Z,4.60
2017-08-07T04:25:58.808Z,4.30
2017-08-07T04:28:26.313Z,4.40
2017-08-07T04:30:53.715Z,4.73
2017-08-07T04:33:21.131Z,4.03
2017-08-07T04:35:48.548Z,4.30
2017-08-07T04:38:15.985Z,4.60
2017-08-07T04:40:44.167Z,4.47
2017-08-07T04:43:12.361Z,3.93
2017-08-07T04:45:39.777Z,3.90
2017-08-07T04:48:07.202Z,4.07
2017-08-07T04:50:34.624Z,3.40
2017-08-07T04:53:02.046Z,3.60
2017-08-07T04:55:29.467Z,3.40
2017-08-07T04:57:57.570Z,3.20
2017-08-07T05:00:24.993Z,3.27
2017-08-07T05:02:52.401Z,3.27
2017-08-07T05:05:21.499Z,3.70
2017-08-07T05:07:50.454Z,3.40
2017-08-07T05:10:18.782Z,3.20
2017-08-07T05:12:46.195Z,3.10
2017-08-07T05:15:13.631Z,3.50
2017-08-07T05:17:41.045Z,3.10
2017-08-07T05:20:09.231Z,3.17
2017-08-07T05:22:36.654Z,3.47
2017-08-07T05:25:04.063Z,2.97
2017-08-07T05:27:31.478Z,3.30
2017-08-07T05:29:58.899Z,2.80
2017-08-07T05:32:26.979Z,3.00
2017-08-07T05:34:54.392Z,3.20
2017-08-07T05:37:22.606Z,3.00
2017-08-07T05:39:50.022Z,3.80
2017-08-07T05:42:17.446Z,2.70
2017-08-07T05:44:44.850Z,3.60
2017-08-07T05:47:12.942Z,3.53
2017-08-07T05:49:40.362Z,3.47
2017-08-07T05:52:08.306Z,3.97
2017-08-07T05:54:36.490Z,3.23
2017-08-07T05:57:04.690Z,3.50
2017-08-07T05:59:32.103Z,3.30
2017-08-07T06:02:00.290Z,3.40
2017-08-07T06:04:27.701Z,2.80
2017-08-07T06:06:55.110Z,3.87
2017-08-07T06:09:22.534Z,3.20
2017-08-07T06:11:50.729Z,2.63
2017-08-07T06:14:18.917Z,3.43
2017-08-07T06:16:46.326Z,3.67
2017-08-07T06:19:13.748Z,2.80
2017-08-07T06:21:41.160Z,3.47
2017-08-07T06:24:09.334Z,3.67
2017-08-07T06:26:38.298Z,4.50
2017-08-07T06:29:05.731Z,3.30
2017-08-07T06:31:33.144Z,3.20
2017-08-07T06:34:02.279Z,2.53
2017-08-07T06:36:29.694Z,2.50
2017-08-07T06:38:57.119Z,2.53
2017-08-07T06:41:24.956Z,2.90
2017-08-07T06:43:52.374Z,2.90
2017-08-07T06:46:20.550Z,3.10
2017-08-07T06:48:49.586Z,2.43
2017-08-07T06:51:16.982Z,2.33
2017-08-07T06:53:45.173Z,2.30
2017-08-07T06:56:13.367Z,2.80
2017-08-07T06:58:40.776Z,3.07
2017-08-07T07:01:08.200Z,2.47
2017-08-07T07:03:35.611Z,2.40
2017-08-07T07:06:03.794Z,2.43
2017-08-07T07:08:31.210Z,2.87
2017-08-07T07:10:58.635Z,2.53
2017-08-07T07:13:26.050Z,2.70
2017-08-07T07:15:54.646Z,2.93
2017-08-07T07:18:22.070Z,2.07
2017-08-07T07:21:06.566Z,2.80
2017-08-07T07:23:33.982Z,2.43
2017-08-07T07:26:01.797Z,2.27
2017-08-07T07:28:29.217Z,2.33
2017-08-07T07:30:56.629Z,2.73
2017-08-07T07:33:24.055Z,2.90
2017-08-07T07:35:51.475Z,2.80
2017-08-07T07:38:18.900Z,3.13
2017-08-07T07:40:47.735Z,2.23
2017-08-07T07:43:15.922Z,2.23
2017-08-07T07:45:44.111Z,2.60
2017-08-07T07:48:11.528Z,2.90
2017-08-07T07:50:38.970Z,3.17
2017-08-07T07:53:07.204Z,2.70
2017-08-07T07:55:34.618Z,3.00
2017-08-07T07:58:02.039Z,2.60
2017-08-07T08:00:29.458Z,2.73
2017-08-07T08:02:56.887Z,3.00
2017-08-07T08:05:24.290Z,2.70
2017-08-07T08:07:52.342Z,2.70
2017-08-07T08:10:20.519Z,2.70
2017-08-07T08:12:47.935Z,3.00
2017-08-07T08:15:15.343Z,2.33
2017-08-07T08:17:43.010Z,2.80
2017-08-07T08:20:10.402Z,2.60
2017-08-07T08:22:37.822Z,2.47
2017-08-07T08:25:05.247Z,2.47
2017-08-07T08:27:33.437Z,2.60
2017-08-07T08:30:01.695Z,2.80
2017-08-07T08:32:29.886Z,2.50
2017-08-07T08:34:57.303Z,2.03
2017-08-07T08:37:24.730Z,1.90
2017-08-07T08:39:52.145Z,2.60
2017-08-07T08:42:20.794Z,2.10
2017-08-07T08:44:48.201Z,2.10
2017-08-07T08:47:15.618Z,2.07
2017-08-07T08:49:43.034Z,2.00
2017-08-07T08:52:10.458Z,2.00
2017-08-07T08:54:37.878Z,2.07
2017-08-07T08:57:05.300Z,2.13
2017-08-07T08:59:33.633Z,2.30
2017-08-07T09:02:01.806Z,2.00
2017-08-07T09:04:29.991Z,2.10
2017-08-07T09:06:58.170Z,1.80
2017-08-07T09:09:25.592Z,2.30
2017-08-07T09:11:53.011Z,2.00
2017-08-07T09:14:20.438Z,2.07
2017-08-07T09:16:47.850Z,2.53
2017-08-07T09:19:15.262Z,1.90
2017-08-07T09:39:02.467Z,2.50
2017-08-07T09:41:30.660Z,2.10
2017-08-07T09:43:58.074Z,2.80
2017-08-07T09:46:25.502Z,2.17
2017-08-07T09:48:52.906Z,2.20
2017-08-07T09:51:21.094Z,2.30
2017-08-07T09:53:49.268Z,2.63
2017-08-07T09:56:16.694Z,2.53
2017-08-07T09:58:44.109Z,1.93
2017-08-07T10:01:11.518Z,2.17
2017-08-07T10:03:40.380Z,2.00
2017-08-07T10:06:07.794Z,2.20
2017-08-07T10:08:36.100Z,2.20
2017-08-07T10:11:04.284Z,2.50
2017-08-07T10:13:31.704Z,1.90
2017-08-07T10:15:59.114Z,2.03
2017-08-07T10:18:26.534Z,1.97
2017-08-07T10:29:33.707Z,1.80
2017-08-07T10:32:01.133Z,2.20
2017-08-07T10:34:28.551Z,2.70
2017-08-07T10:36:56.737Z,1.67
2017-08-07T10:39:24.147Z,2.40
2017-08-07T10:41:51.555Z,1.90
2017-08-07T10:44:19.012Z,1.70
2017-08-07T10:46:46.423Z,1.90
2017-08-07T10:49:13.846Z,1.50
2017-08-07T10:51:41.274Z,2.07
2017-08-07T10:54:08.687Z,2.30
2017-08-07T10:56:36.793Z,2.20
2017-08-07T10:59:04.203Z,1.50
2017-08-07T11:01:33.015Z,1.50
2017-08-07T11:04:00.429Z,1.50
2017-08-07T11:06:27.846Z,1.63
2017-08-07T11:08:56.030Z,1.80
2017-08-07T11:11:23.451Z,1.97
2017-08-07T11:13:51.773Z,2.20
2017-08-07T11:16:19.190Z,1.80
2017-08-07T11:18:46.595Z,2.40
2017-08-07T11:21:14.022Z,2.20
2017-08-07T11:23:42.194Z,2.10
2017-08-07T11:26:10.386Z,2.57
2017-08-07T11:28:37.802Z,2.20
2017-08-07T11:31:05.227Z,2.27
2017-08-07T11:33:32.647Z,1.97
2017-08-07T11:36:00.063Z,2.27
2017-08-07T11:38:27.486Z,2.17
2017-08-07T11:40:54.906Z,2.13
2017-08-07T11:43:22.331Z,2.30
2017-08-07T11:45:49.738Z,1.77
2017-08-07T11:48:17.160Z,1.93
2017-08-07T11:50:44.557Z,2.30
2017-08-07T11:53:12.004Z,2.20
2017-08-07T11:55:39.403Z,2.97
2017-08-07T11:58:06.837Z,2.77
2017-08-07T12:00:34.238Z,2.40
2017-08-07T12:03:02.427Z,2.47
2017-08-07T12:05:30.613Z,2.10
2017-08-07T12:07:58.506Z,2.10
2017-08-07T12:10:25.913Z,2.27
2017-08-07T12:12:55.112Z,2.30
2017-08-07T12:15:23.294Z,1.97
2017-08-07T12:17:51.470Z,2.33
2017-08-07T12:20:18.895Z,2.27
2017-08-07T12:22:46.308Z,2.50
2017-08-07T12:25:13.727Z,2.83
2017-08-07T12:27:42.154Z,2.07
2017-08-07T12:30:09.582Z,2.50
2017-08-07T12:32:36.993Z,2.37
2017-08-07T12:35:04.403Z,2.87
2017-08-07T12:37:31.822Z,2.40
2017-08-07T12:39:59.242Z,2.30
2017-08-07T12:42:26.662Z,2.70
2017-08-07T12:44:54.474Z,2.80
2017-08-07T12:47:21.887Z,2.00
2017-08-07T12:49:49.298Z,2.53
2017-08-07T12:52:16.710Z,2.93
2017-08-07T12:54:44.136Z,2.63
2017-08-07T12:57:12.328Z,2.47
2017-08-07T12:59:39.737Z,2.13
2017-08-07T13:02:07.700Z,2.60
2017-08-07T13:04:36.039Z,2.80
2017-08-07T13:07:03.462Z,2.40
2017-08-07T13:09:31.642Z,2.20
2017-08-07T13:12:00.620Z,2.50
2017-08-07T13:14:28.263Z,2.93
2017-08-07T13:16:55.658Z,2.37
2017-08-07T13:19:24.091Z,2.80
2017-08-07T13:21:51.533Z,2.23
2017-08-07T13:24:18.929Z,2.00
2017-08-07T13:26:47.115Z,2.50
2017-08-07T13:29:15.294Z,2.13
2017-08-07T13:31:43.494Z,2.30
2017-08-07T13:34:10.901Z,1.80
2017-08-07T13:36:38.682Z,1.70
2017-08-07T13:39:06.866Z,2.47
2017-08-07T13:41:36.002Z,2.33
2017-08-07T13:44:03.435Z,2.63
2017-08-07T13:46:30.843Z,2.03
2017-08-07T13:48:58.681Z,2.27
2017-08-07T13:51:26.090Z,1.70
2017-08-07T13:53:53.503Z,1.60
2017-08-07T13:56:20.927Z,2.00
2017-08-07T13:58:48.347Z,2.20
2017-08-07T14:01:15.759Z,2.33
2017-08-07T14:03:43.176Z,2.20
2017-08-07T14:06:11.358Z,2.17
2017-08-07T14:08:38.773Z,2.07
2017-08-07T14:11:06.202Z,2.10
2017-08-07T14:13:33.610Z,2.10
2017-08-07T14:16:01.803Z,2.40
2017-08-07T14:18:29.978Z,1.90
2017-08-07T14:20:57.446Z,2.00
2017-08-07T14:23:25.274Z,2.37
2017-08-07T14:25:54.998Z,2.80
2017-08-07T14:28:23.173Z,1.97
2017-08-07T14:30:51.371Z,2.00
2017-08-07T14:33:18.767Z,1.77
2017-08-07T14:35:46.750Z,1.80
2017-08-07T14:38:14.167Z,2.47
2017-08-07T14:40:41.590Z,1.83
2017-08-07T14:43:09.524Z,2.07
2017-08-07T14:45:37.679Z,1.67
2017-08-07T14:48:05.093Z,1.80
2017-08-07T14:50:33.388Z,2.23
2017-08-07T14:53:00.803Z,2.10
2017-08-07T14:58:20.894Z,4.10
2017-08-07T15:00:48.308Z,1.77
2017-08-07T15:03:15.726Z,2.37
2017-08-07T15:05:43.915Z,2.20
2017-08-07T15:08:11.595Z,1.73
2017-08-07T15:10:39.017Z,1.70
2017-08-07T15:13:07.199Z,1.70
2017-08-07T15:15:35.383Z,1.90
2017-08-07T15:18:02.802Z,1.90
2017-08-07T15:29:25.308Z,1.70
2017-08-07T15:31:52.730Z,2.00
2017-08-07T15:34:20.155Z,1.60
2017-08-07T15:36:47.570Z,1.50
2017-08-07T15:39:14.994Z,1.37
2017-08-07T15:41:43.247Z,1.37
2017-08-07T15:44:10.663Z,1.90
2017-08-07T15:46:38.078Z,1.80
2017-08-07T15:49:05.503Z,1.90
2017-08-07T15:51:32.919Z,1.90
2017-08-07T15:54:00.347Z,2.00
2017-08-07T15:56:27.763Z,1.70
2017-08-07T15:58:55.953Z,1.47
2017-08-07T16:01:23.370Z,1.90
2017-08-07T16:03:50.795Z,1.60
2017-08-07T16:06:18.198Z,1.87
2017-08-07T16:08:46.387Z,1.57
2017-08-07T16:11:13.802Z,2.00
2017-08-07T16:13:41.222Z,1.60
2017-08-07T16:16:08.642Z,1.80
2017-08-07T16:18:36.827Z,1.73
2017-08-07T16:21:05.006Z,2.00
2017-08-07T16:23:32.426Z,1.80
2017-08-07T16:25:59.842Z,1.97
2017-08-07T16:28:27.254Z,1.77
2017-08-07T16:30:55.446Z,2.00
2017-08-07T16:33:22.861Z,1.90
2017-08-07T16:35:50.914Z,1.93
2017-08-07T16:38:18.338Z,2.00
2017-08-07T16:40:45.762Z,2.30
2017-08-07T16:43:14.589Z,1.70
2017-08-07T16:45:42.004Z,2.40
2017-08-07T16:48:09.427Z,1.90
2017-08-07T16:50:36.874Z,1.90
2017-08-07T16:53:04.287Z,2.27
2017-08-07T16:55:33.378Z,2.10
2017-08-07T16:58:01.655Z,1.90
2017-08-07T17:00:29.070Z,1.90
2017-08-07T17:02:56.491Z,1.90
2017-08-07T17:05:23.900Z,2.17
2017-08-07T17:07:51.328Z,2.10
2017-08-07T17:10:18.737Z,1.70
2017-08-07T17:12:46.914Z,1.97
2017-08-07T17:15:15.099Z,1.93
2017-08-07T17:17:43.279Z,1.97
2017-08-07T17:20:10.690Z,1.90
2017-08-07T17:22:38.115Z,2.20
2017-08-07T17:25:05.799Z,2.37
2017-08-07T17:27:33.207Z,2.03
2017-08-07T17:30:00.622Z,2.00
2017-08-07T17:32:28.044Z,2.27
2017-08-07T17:34:55.454Z,2.47
2017-08-07T17:37:23.640Z,2.03
2017-08-07T17:39:51.742Z,2.00
2017-08-07T17:42:19.172Z,2.03
2017-08-07T17:44:46.583Z,2.50
2017-08-07T17:47:13.999Z,2.30
2017-08-07T17:49:41.410Z,1.80
2017-08-07T17:52:08.827Z,2.50
2017-08-07T17:54:36.242Z,2.00
2017-08-07T17:57:04.425Z,2.17
2017-08-07T17:59:31.843Z,2.23
2017-08-07T18:01:59.272Z,2.20
2017-08-07T18:04:26.687Z,2.10
2017-08-07T18:06:54.858Z,2.47
2017-08-07T18:09:23.050Z,2.57
2017-08-07T18:11:50.454Z,2.13
2017-08-07T18:14:17.885Z,1.67
2017-08-07T18:16:45.299Z,2.40
2017-08-07T18:19:15.027Z,2.30
2017-08-07T18:21:42.438Z,2.40
2017-08-07T18:24:09.862Z,2.70
2017-08-07T18:26:38.446Z,2.30
2017-08-07T18:29:05.853Z,2.17
2017-08-07T18:31:33.283Z,2.20
2017-08-07T18:34:00.696Z,2.57
2017-08-07T18:36:28.122Z,2.47
2017-08-07T18:38:56.299Z,2.77
2017-08-07T18:41:24.486Z,2.20
2017-08-07T18:43:51.894Z,2.80
2017-08-07T18:46:19.305Z,2.80
2017-08-07T18:48:46.735Z,2.20
2017-08-07T18:51:14.149Z,2.33
2017-08-07T18:53:41.574Z,2.20
2017-08-07T18:56:08.990Z,2.20
2017-08-07T18:58:36.405Z,2.60
2017-08-07T19:01:03.822Z,2.70
2017-08-07T19:03:32.631Z,2.40
2017-08-07T19:06:00.802Z,2.50
2017-08-07T19:08:28.215Z,2.50
2017-08-07T19:10:55.626Z,2.77
2017-08-07T19:13:23.042Z,2.53
2017-08-07T19:15:50.463Z,2.30
2017-08-07T19:18:17.893Z,2.67
2017-08-07T19:20:45.371Z,2.73
2017-08-07T19:23:12.774Z,2.80
2017-08-07T19:25:40.954Z,2.80
2017-08-07T19:28:09.156Z,2.83
2017-08-07T19:30:37.710Z,2.30
2017-08-07T19:33:05.898Z,2.20
2017-08-07T19:35:33.314Z,2.40
2017-08-07T19:38:00.743Z,2.90
2017-08-07T19:40:28.166Z,2.43
2017-08-07T19:42:55.582Z,2.53
2017-08-07T19:45:22.999Z,2.63
2017-08-07T19:47:51.297Z,2.77
2017-08-07T19:50:18.714Z,3.33
2017-08-07T19:52:46.132Z,3.47
2017-08-07T19:55:13.551Z,3.20
2017-08-07T19:57:40.975Z,3.10
2017-08-07T20:00:08.390Z,2.80
2017-08-07T20:02:35.807Z,3.60
2017-08-07T20:05:03.217Z,3.37
2017-08-07T20:07:30.635Z,3.30
2017-08-07T20:09:58.055Z,3.50
2017-08-07T20:12:25.466Z,3.30
2017-08-07T20:14:52.888Z,2.97
2017-08-07T20:17:20.298Z,3.03
2017-08-07T20:19:47.729Z,3.80
2017-08-07T20:22:15.151Z,2.93
2017-08-07T20:24:42.562Z,3.10
2017-08-07T20:27:09.976Z,3.33
2017-08-07T20:29:37.392Z,3.10
2017-08-07T20:32:04.803Z,2.67
2017-08-07T20:34:33.327Z,3.63
2017-08-07T20:37:00.746Z,3.03
2017-08-07T20:39:28.158Z,3.40
2017-08-07T20:41:55.578Z,3.37
2017-08-07T20:44:22.999Z,3.40
2017-08-07T20:46:50.418Z,3.67
2017-08-07T20:49:17.834Z,3.90
2017-08-07T20:51:45.261Z,3.67
2017-08-07T20:54:12.679Z,3.67
2017-08-07T20:56:40.102Z,3.43
2017-08-07T20:59:07.522Z,3.20
2017-08-07T21:01:34.942Z,3.50
2017-08-07T21:04:02.360Z,3.10
2017-08-07T21:06:29.774Z,3.33
2017-08-07T21:08:57.203Z,3.50
2017-08-07T21:11:24.625Z,3.87
2017-08-07T21:13:52.806Z,3.20
2017-08-07T21:16:20.229Z,3.90
2017-08-07T21:18:47.646Z,3.13
2017-08-07T21:21:15.063Z,3.90
2017-08-07T21:23:42.490Z,4.70
2017-08-07T21:26:09.902Z,3.20
2017-08-07T21:28:38.231Z,3.90
2017-08-07T21:31:06.334Z,2.90
2017-08-07T21:33:33.751Z,3.47
2017-08-07T21:36:01.162Z,3.87
2017-08-07T21:38:31.147Z,3.60
2017-08-07T21:40:58.683Z,3.90
2017-08-07T21:43:26.111Z,3.57
2017-08-07T21:45:54.288Z,3.23
2017-08-07T21:48:21.696Z,3.37
2017-08-07T21:50:49.112Z,3.50
2017-08-07T21:53:16.522Z,3.67
2017-08-07T21:55:45.054Z,3.70
2017-08-07T21:58:12.710Z,3.83
2017-08-07T22:00:40.122Z,3.63
2017-08-07T22:03:07.530Z,3.27
2017-08-07T22:05:34.959Z,3.43
2017-08-07T22:08:02.369Z,3.53
2017-08-07T22:10:29.790Z,3.33
2017-08-07T22:12:57.200Z,3.47
2017-08-07T22:15:24.605Z,3.70
2017-08-07T22:17:52.042Z,3.80
2017-08-07T22:20:19.444Z,3.77
2017-08-07T22:22:46.867Z,3.53
2017-08-07T22:25:14.278Z,3.80
2017-08-07T22:27:41.699Z,3.87
2017-08-07T22:30:09.119Z,3.93
2017-08-07T22:32:37.343Z,3.60
2017-08-07T22:35:04.758Z,3.73
2017-08-07T22:37:32.174Z,3.33
2017-08-07T22:39:59.590Z,4.50
2017-08-07T22:42:27.533Z,4.10
2017-08-07T22:44:55.714Z,3.57
2017-08-07T22:47:23.134Z,3.87
2017-08-07T22:49:51.306Z,3.90
2017-08-07T22:52:18.717Z,3.27
2017-08-07T22:54:46.138Z,3.60
2017-08-07T22:57:13.553Z,3.17
2017-08-07T22:59:40.975Z,3.10
2017-08-07T23:02:10.340Z,4.13
2017-08-07T23:04:37.754Z,3.63
2017-08-07T23:07:05.587Z,3.67
2017-08-07T23:09:33.010Z,3.80
2017-08-07T23:12:00.424Z,3.67
2017-08-07T23:14:27.846Z,3.67
2017-08-07T23:16:55.259Z,4.07
2017-08-07T23:19:22.677Z,4.10
2017-08-07T23:21:50.859Z,4.63
2017-08-07T23:24:18.281Z,3.83
2017-08-07T23:26:45.701Z,3.47
2017-08-07T23:29:13.159Z,4.87
2017-08-07T23:31:41.239Z,4.00
2017-08-07T23:34:08.666Z,4.70
2017-08-07T23:36:36.079Z,3.97
2017-08-07T23:39:03.499Z,3.93
2017-08-07T23:41:30.911Z,4.97
2017-08-07T23:43:59.494Z,4.27
2017-08-07T23:46:26.902Z,4.37
2017-08-07T23:48:54.322Z,4.63
2017-08-07T23:51:21.738Z,4.40
2017-08-07T23:53:49.154Z,4.83
2017-08-07T23:56:16.572Z,4.63
2017-08-07T23:58:43.982Z,4.03
